sensor_id;sensor_type;location;lat;lon;timestamp;P1;durP1;ratioP1;P2;durP2;ratioP2
12910;SDS011;6523;49.758;6.120;2022-11-20T00:00:25;7.00;;;6.30;;
12910;SDS011;6523;49.758;6.120;2022-11-20T00:02:50;8.23;;;5.60;;
12910;SDS011;6523;49.758;6.120;2022-11-20T00:05:16;6.53;;;5.60;;
12910;SDS011;6523;49.758;6.120;2022-11-20T00:07:42;6.27;;;5.47;;
12910;SDS011;6523;49.758;6.120;2022-11-20T00:10:07;6.53;;;5.93;;
12910;SDS011;6523;49.758;6.120;2022-11-20T00:12:33;7.73;;;5.67;;
12910;SDS011;6523;49.758;6.120;2022-11-20T00:14:59;8.43;;;5.63;;
12910;SDS011;6523;49.758;6.120;2022-11-20T00:17:24;7.10;;;5.90;;
12910;SDS011;6523;49.758;6.120;2022-11-20T00:19:50;7.47;;;5.80;;
12910;SDS011;6523;49.758;6.120;2022-11-20T00:22:15;9.50;;;6.23;;
12910;SDS011;6523;49.758;6.120;2022-11-20T00:24:41;7.70;;;6.40;;
12910;SDS011;6523;49.758;6.120;2022-11-20T00:27:06;7.23;;;6.50;;
12910;SDS011;6523;49.758;6.120;2022-11-20T00:29:32;6.93;;;6.27;;
12910;SDS011;6523;49.758;6.120;2022-11-20T00:31:57;6.20;;;5.50;;
12910;SDS011;6523;49.758;6.120;2022-11-20T00:34:23;7.27;;;6.00;;
12910;SDS011;6523;49.758;6.120;2022-11-20T00:36:48;8.07;;;6.00;;
12910;SDS011;6523;49.758;6.120;2022-11-20T00:39:14;10.13;;;6.20;;
12910;SDS011;6523;49.758;6.120;2022-11-20T00:41:40;8.07;;;6.33;;
12910;SDS011;6523;49.758;6.120;2022-11-20T00:44:05;6.83;;;6.10;;
12910;SDS011;6523;49.758;6.120;2022-11-20T00:46:31;7.67;;;6.33;;
12910;SDS011;6523;49.758;6.120;2022-11-20T00:48:57;8.83;;;6.57;;
12910;SDS011;6523;49.758;6.120;2022-11-20T00:51:23;6.23;;;5.60;;
12910;SDS011;6523;49.758;6.120;2022-11-20T00:53:50;9.60;;;6.47;;
12910;SDS011;6523;49.758;6.120;2022-11-20T00:56:16;6.90;;;6.20;;
12910;SDS011;6523;49.758;6.120;2022-11-20T00:58:44;8.33;;;6.33;;
12910;SDS011;6523;49.758;6.120;2022-11-20T01:01:15;8.17;;;6.10;;
12910;SDS011;6523;49.758;6.120;2022-11-20T01:03:43;8.20;;;6.50;;
12910;SDS011;6523;49.758;6.120;2022-11-20T01:06:27;7.73;;;6.37;;
12910;SDS011;6523;49.758;6.120;2022-11-20T01:08:58;6.60;;;5.90;;
12910;SDS011;6523;49.758;6.120;2022-11-20T01:11:26;9.67;;;6.80;;
12910;SDS011;6523;49.758;6.120;2022-11-20T01:13:57;7.87;;;6.20;;
12910;SDS011;6523;49.758;6.120;2022-11-20T01:16:25;7.33;;;6.00;;
12910;SDS011;6523;49.758;6.120;2022-11-20T01:18:56;8.37;;;6.43;;
12910;SDS011;6523;49.758;6.120;2022-11-20T01:21:34;7.67;;;6.43;;
12910;SDS011;6523;49.758;6.120;2022-11-20T01:24:02;8.67;;;6.77;;
12910;SDS011;6523;49.758;6.120;2022-11-20T01:26:32;7.77;;;6.47;;
12910;SDS011;6523;49.758;6.120;2022-11-20T01:28:58;7.97;;;6.47;;
12910;SDS011;6523;49.758;6.120;2022-11-20T01:33:55;10.33;;;6.87;;
12910;SDS011;6523;49.758;6.120;2022-11-20T01:36:23;8.63;;;7.30;;
12910;SDS011;6523;49.758;6.120;2022-11-20T01:38:52;9.23;;;6.70;;
12910;SDS011;6523;49.758;6.120;2022-11-20T01:41:19;8.03;;;6.90;;
12910;SDS011;6523;49.758;6.120;2022-11-20T01:44:05;8.73;;;7.67;;
12910;SDS011;6523;49.758;6.120;2022-11-20T01:46:31;9.57;;;6.87;;
12910;SDS011;6523;49.758;6.120;2022-11-20T01:51:49;10.43;;;6.40;;
12910;SDS011;6523;49.758;6.120;2022-11-20T01:54:36;9.80;;;6.73;;
12910;SDS011;6523;49.758;6.120;2022-11-20T01:57:27;9.17;;;5.93;;
12910;SDS011;6523;49.758;6.120;2022-11-20T01:59:57;7.93;;;6.47;;
12910;SDS011;6523;49.758;6.120;2022-11-20T02:02:28;9.67;;;6.07;;
12910;SDS011;6523;49.758;6.120;2022-11-20T02:04:54;5.97;;;5.47;;
12910;SDS011;6523;49.758;6.120;2022-11-20T02:07:25;8.30;;;5.83;;
12910;SDS011;6523;49.758;6.120;2022-11-20T02:09:52;7.10;;;4.77;;
12910;SDS011;6523;49.758;6.120;2022-11-20T02:12:18;8.00;;;5.67;;
12910;SDS011;6523;49.758;6.120;2022-11-20T02:15:02;6.33;;;5.37;;
12910;SDS011;6523;49.758;6.120;2022-11-20T02:17:28;7.27;;;6.23;;
12910;SDS011;6523;49.758;6.120;2022-11-20T02:19:54;7.50;;;5.93;;
12910;SDS011;6523;49.758;6.120;2022-11-20T02:22:23;6.27;;;5.50;;
12910;SDS011;6523;49.758;6.120;2022-11-20T02:24:55;8.93;;;5.80;;
12910;SDS011;6523;49.758;6.120;2022-11-20T02:27:23;7.50;;;5.73;;
12910;SDS011;6523;49.758;6.120;2022-11-20T02:29:57;7.73;;;5.27;;
12910;SDS011;6523;49.758;6.120;2022-11-20T02:32:27;6.40;;;4.70;;
12910;SDS011;6523;49.758;6.120;2022-11-20T02:34:55;6.37;;;4.90;;
12910;SDS011;6523;49.758;6.120;2022-11-20T02:37:21;6.50;;;4.73;;
12910;SDS011;6523;49.758;6.120;2022-11-20T02:39:48;6.50;;;4.77;;
12910;SDS011;6523;49.758;6.120;2022-11-20T02:42:16;5.23;;;4.63;;
12910;SDS011;6523;49.758;6.120;2022-11-20T02:44:42;5.40;;;4.60;;
12910;SDS011;6523;49.758;6.120;2022-11-20T02:47:07;5.50;;;4.80;;
12910;SDS011;6523;49.758;6.120;2022-11-20T02:49:33;4.83;;;4.33;;
12910;SDS011;6523;49.758;6.120;2022-11-20T02:51:59;5.03;;;4.17;;
12910;SDS011;6523;49.758;6.120;2022-11-20T02:54:25;5.33;;;4.30;;
12910;SDS011;6523;49.758;6.120;2022-11-20T02:56:51;5.13;;;4.60;;
12910;SDS011;6523;49.758;6.120;2022-11-20T02:59:16;5.57;;;4.50;;
12910;SDS011;6523;49.758;6.120;2022-11-20T03:01:42;6.03;;;4.83;;
12910;SDS011;6523;49.758;6.120;2022-11-20T03:04:07;4.03;;;3.60;;
12910;SDS011;6523;49.758;6.120;2022-11-20T03:06:33;5.27;;;4.17;;
12910;SDS011;6523;49.758;6.120;2022-11-20T03:08:58;6.00;;;4.20;;
12910;SDS011;6523;49.758;6.120;2022-11-20T03:11:24;6.73;;;4.10;;
12910;SDS011;6523;49.758;6.120;2022-11-20T03:13:50;5.80;;;3.77;;
12910;SDS011;6523;49.758;6.120;2022-11-20T03:16:17;4.33;;;3.70;;
12910;SDS011;6523;49.758;6.120;2022-11-20T03:18:44;4.50;;;4.10;;
12910;SDS011;6523;49.758;6.120;2022-11-20T03:21:10;4.40;;;4.00;;
12910;SDS011;6523;49.758;6.120;2022-11-20T03:23:37;5.53;;;3.80;;
12910;SDS011;6523;49.758;6.120;2022-11-20T03:26:07;4.77;;;3.90;;
12910;SDS011;6523;49.758;6.120;2022-11-20T03:28:41;5.37;;;3.73;;
12910;SDS011;6523;49.758;6.120;2022-11-20T03:31:11;4.53;;;3.93;;
12910;SDS011;6523;49.758;6.120;2022-11-20T03:33:39;3.93;;;3.60;;
12910;SDS011;6523;49.758;6.120;2022-11-20T03:36:16;4.37;;;3.63;;
12910;SDS011;6523;49.758;6.120;2022-11-20T03:38:43;4.27;;;3.87;;
12910;SDS011;6523;49.758;6.120;2022-11-20T03:41:10;4.23;;;3.53;;
12910;SDS011;6523;49.758;6.120;2022-11-20T03:43:37;4.37;;;3.67;;
12910;SDS011;6523;49.758;6.120;2022-11-20T03:46:03;3.97;;;3.57;;
12910;SDS011;6523;49.758;6.120;2022-11-20T03:48:29;4.43;;;3.50;;
12910;SDS011;6523;49.758;6.120;2022-11-20T03:51:15;4.47;;;4.00;;
12910;SDS011;6523;49.758;6.120;2022-11-20T03:53:43;4.07;;;3.67;;
12910;SDS011;6523;49.758;6.120;2022-11-20T03:56:10;4.73;;;4.23;;
12910;SDS011;6523;49.758;6.120;2022-11-20T03:58:36;5.20;;;4.47;;
12910;SDS011;6523;49.758;6.120;2022-11-20T04:01:13;6.13;;;4.93;;
12910;SDS011;6523;49.758;6.120;2022-11-20T04:03:44;5.73;;;4.30;;
12910;SDS011;6523;49.758;6.120;2022-11-20T04:06:20;6.77;;;6.07;;
12910;SDS011;6523;49.758;6.120;2022-11-20T04:08:53;6.57;;;5.30;;
12910;SDS011;6523;49.758;6.120;2022-11-20T04:11:27;8.27;;;6.27;;
12910;SDS011;6523;49.758;6.120;2022-11-20T04:13:54;8.23;;;6.20;;
12910;SDS011;6523;49.758;6.120;2022-11-20T04:16:22;7.77;;;6.43;;
12910;SDS011;6523;49.758;6.120;2022-11-20T04:18:52;8.47;;;6.00;;
12910;SDS011;6523;49.758;6.120;2022-11-20T04:21:18;6.93;;;6.13;;
12910;SDS011;6523;49.758;6.120;2022-11-20T04:23:45;8.00;;;6.60;;
12910;SDS011;6523;49.758;6.120;2022-11-20T04:26:11;9.03;;;7.00;;
12910;SDS011;6523;49.758;6.120;2022-11-20T04:28:37;8.73;;;7.17;;
12910;SDS011;6523;49.758;6.120;2022-11-20T04:33:31;9.63;;;7.13;;
12910;SDS011;6523;49.758;6.120;2022-11-20T04:35:59;9.07;;;6.90;;
12910;SDS011;6523;49.758;6.120;2022-11-20T04:38:29;9.43;;;7.27;;
12910;SDS011;6523;49.758;6.120;2022-11-20T04:40:56;8.77;;;6.50;;
12910;SDS011;6523;49.758;6.120;2022-11-20T04:43:25;7.83;;;6.20;;
12910;SDS011;6523;49.758;6.120;2022-11-20T04:45:51;8.90;;;6.67;;
12910;SDS011;6523;49.758;6.120;2022-11-20T04:48:18;7.70;;;6.40;;
12910;SDS011;6523;49.758;6.120;2022-11-20T04:50:43;10.43;;;7.30;;
12910;SDS011;6523;49.758;6.120;2022-11-20T04:53:09;10.13;;;7.77;;
12910;SDS011;6523;49.758;6.120;2022-11-20T04:55:35;10.63;;;6.87;;
12910;SDS011;6523;49.758;6.120;2022-11-20T04:58:00;10.07;;;7.13;;
12910;SDS011;6523;49.758;6.120;2022-11-20T05:00:26;8.97;;;7.03;;
12910;SDS011;6523;49.758;6.120;2022-11-20T05:02:51;9.17;;;6.70;;
12910;SDS011;6523;49.758;6.120;2022-11-20T05:05:17;12.23;;;8.10;;
12910;SDS011;6523;49.758;6.120;2022-11-20T05:07:43;11.07;;;8.60;;
12910;SDS011;6523;49.758;6.120;2022-11-20T05:10:08;10.73;;;7.73;;
12910;SDS011;6523;49.758;6.120;2022-11-20T05:12:34;12.30;;;8.07;;
12910;SDS011;6523;49.758;6.120;2022-11-20T05:15:00;13.17;;;8.77;;
12910;SDS011;6523;49.758;6.120;2022-11-20T05:17:25;11.30;;;8.67;;
12910;SDS011;6523;49.758;6.120;2022-11-20T05:19:51;11.90;;;8.77;;
12910;SDS011;6523;49.758;6.120;2022-11-20T05:22:16;14.43;;;9.10;;
12910;SDS011;6523;49.758;6.120;2022-11-20T05:24:42;14.63;;;9.53;;
12910;SDS011;6523;49.758;6.120;2022-11-20T05:27:07;10.80;;;8.67;;
12910;SDS011;6523;49.758;6.120;2022-11-20T05:29:33;12.20;;;9.33;;
12910;SDS011;6523;49.758;6.120;2022-11-20T05:31:58;12.27;;;8.80;;
12910;SDS011;6523;49.758;6.120;2022-11-20T05:34:24;12.70;;;9.07;;
12910;SDS011;6523;49.758;6.120;2022-11-20T05:36:49;13.47;;;8.97;;
12910;SDS011;6523;49.758;6.120;2022-11-20T05:39:15;13.73;;;9.27;;
12910;SDS011;6523;49.758;6.120;2022-11-20T05:41:40;14.87;;;10.40;;
12910;SDS011;6523;49.758;6.120;2022-11-20T05:44:06;15.27;;;10.63;;
12910;SDS011;6523;49.758;6.120;2022-11-20T05:46:32;14.80;;;10.33;;
12910;SDS011;6523;49.758;6.120;2022-11-20T05:48:57;13.40;;;10.07;;
12910;SDS011;6523;49.758;6.120;2022-11-20T05:51:23;14.17;;;10.03;;
12910;SDS011;6523;49.758;6.120;2022-11-20T05:53:50;14.90;;;9.80;;
12910;SDS011;6523;49.758;6.120;2022-11-20T05:56:16;14.97;;;9.97;;
12910;SDS011;6523;49.758;6.120;2022-11-20T05:58:44;16.20;;;11.07;;
12910;SDS011;6523;49.758;6.120;2022-11-20T06:01:20;15.90;;;10.10;;
12910;SDS011;6523;49.758;6.120;2022-11-20T06:03:48;13.93;;;9.60;;
12910;SDS011;6523;49.758;6.120;2022-11-20T06:06:15;17.60;;;11.07;;
12910;SDS011;6523;49.758;6.120;2022-11-20T06:08:42;15.03;;;10.67;;
12910;SDS011;6523;49.758;6.120;2022-11-20T06:11:09;13.97;;;10.20;;
12910;SDS011;6523;49.758;6.120;2022-11-20T06:13:35;14.30;;;9.70;;
12910;SDS011;6523;49.758;6.120;2022-11-20T06:16:01;15.23;;;10.20;;
12910;SDS011;6523;49.758;6.120;2022-11-20T06:18:28;13.53;;;9.67;;
12910;SDS011;6523;49.758;6.120;2022-11-20T06:21:08;12.87;;;9.43;;
12910;SDS011;6523;49.758;6.120;2022-11-20T06:23:38;14.67;;;9.47;;
12910;SDS011;6523;49.758;6.120;2022-11-20T06:26:08;14.20;;;9.63;;
12910;SDS011;6523;49.758;6.120;2022-11-20T06:28:35;16.47;;;9.80;;
12910;SDS011;6523;49.758;6.120;2022-11-20T06:31:01;16.13;;;10.73;;
12910;SDS011;6523;49.758;6.120;2022-11-20T06:33:28;15.23;;;10.27;;
12910;SDS011;6523;49.758;6.120;2022-11-20T06:35:57;18.37;;;10.53;;
12910;SDS011;6523;49.758;6.120;2022-11-20T06:38:27;13.97;;;9.70;;
12910;SDS011;6523;49.758;6.120;2022-11-20T06:40:53;17.07;;;10.93;;
12910;SDS011;6523;49.758;6.120;2022-11-20T06:43:19;15.50;;;10.43;;
12910;SDS011;6523;49.758;6.120;2022-11-20T06:45:44;16.30;;;10.50;;
12910;SDS011;6523;49.758;6.120;2022-11-20T06:48:10;13.73;;;9.83;;
12910;SDS011;6523;49.758;6.120;2022-11-20T06:50:36;17.43;;;10.53;;
12910;SDS011;6523;49.758;6.120;2022-11-20T06:53:02;12.97;;;9.97;;
12910;SDS011;6523;49.758;6.120;2022-11-20T06:55:29;13.50;;;9.37;;
12910;SDS011;6523;49.758;6.120;2022-11-20T06:57:56;13.70;;;9.40;;
12910;SDS011;6523;49.758;6.120;2022-11-20T07:00:21;12.90;;;8.97;;
12910;SDS011;6523;49.758;6.120;2022-11-20T07:02:47;13.70;;;9.23;;
12910;SDS011;6523;49.758;6.120;2022-11-20T07:05:12;13.30;;;9.10;;
12910;SDS011;6523;49.758;6.120;2022-11-20T07:07:38;14.10;;;9.03;;
12910;SDS011;6523;49.758;6.120;2022-11-20T07:10:04;11.07;;;8.63;;
12910;SDS011;6523;49.758;6.120;2022-11-20T07:12:30;11.03;;;8.17;;
12910;SDS011;6523;49.758;6.120;2022-11-20T07:14:55;12.27;;;8.20;;
12910;SDS011;6523;49.758;6.120;2022-11-20T07:17:21;12.17;;;9.23;;
12910;SDS011;6523;49.758;6.120;2022-11-20T07:19:47;11.43;;;7.90;;
12910;SDS011;6523;49.758;6.120;2022-11-20T07:22:12;12.10;;;8.70;;
12910;SDS011;6523;49.758;6.120;2022-11-20T07:24:38;14.50;;;8.87;;
12910;SDS011;6523;49.758;6.120;2022-11-20T07:27:04;11.87;;;8.43;;
12910;SDS011;6523;49.758;6.120;2022-11-20T07:29:30;13.63;;;8.67;;
12910;SDS011;6523;49.758;6.120;2022-11-20T07:31:55;13.73;;;9.77;;
12910;SDS011;6523;49.758;6.120;2022-11-20T07:34:21;13.33;;;8.83;;
12910;SDS011;6523;49.758;6.120;2022-11-20T07:36:47;11.83;;;8.97;;
12910;SDS011;6523;49.758;6.120;2022-11-20T07:39:13;12.60;;;8.50;;
12910;SDS011;6523;49.758;6.120;2022-11-20T07:41:38;11.43;;;8.40;;
12910;SDS011;6523;49.758;6.120;2022-11-20T07:44:04;14.60;;;9.07;;
12910;SDS011;6523;49.758;6.120;2022-11-20T07:46:30;12.10;;;9.00;;
12910;SDS011;6523;49.758;6.120;2022-11-20T07:48:55;11.93;;;9.17;;
12910;SDS011;6523;49.758;6.120;2022-11-20T07:51:21;18.17;;;13.00;;
12910;SDS011;6523;49.758;6.120;2022-11-20T07:53:47;13.37;;;9.43;;
12910;SDS011;6523;49.758;6.120;2022-11-20T07:56:15;12.80;;;8.40;;
12910;SDS011;6523;49.758;6.120;2022-11-20T07:58:40;16.70;;;13.10;;
12910;SDS011;6523;49.758;6.120;2022-11-20T08:01:07;14.20;;;10.57;;
12910;SDS011;6523;49.758;6.120;2022-11-20T08:03:32;10.13;;;8.13;;
12910;SDS011;6523;49.758;6.120;2022-11-20T08:06:01;10.07;;;8.17;;
12910;SDS011;6523;49.758;6.120;2022-11-20T08:08:27;16.60;;;12.03;;
12910;SDS011;6523;49.758;6.120;2022-11-20T08:10:53;11.20;;;7.90;;
12910;SDS011;6523;49.758;6.120;2022-11-20T08:13:39;10.20;;;6.27;;
12910;SDS011;6523;49.758;6.120;2022-11-20T08:16:23;25.17;;;18.73;;
12910;SDS011;6523;49.758;6.120;2022-11-20T08:18:49;7.60;;;6.40;;
12910;SDS011;6523;49.758;6.120;2022-11-20T08:21:14;9.63;;;8.20;;
12910;SDS011;6523;49.758;6.120;2022-11-20T08:23:40;7.10;;;4.47;;
12910;SDS011;6523;49.758;6.120;2022-11-20T08:26:06;6.23;;;4.23;;
12910;SDS011;6523;49.758;6.120;2022-11-20T08:28:31;5.17;;;3.93;;
12910;SDS011;6523;49.758;6.120;2022-11-20T08:30:58;6.13;;;4.27;;
12910;SDS011;6523;49.758;6.120;2022-11-20T08:33:24;6.17;;;4.20;;
12910;SDS011;6523;49.758;6.120;2022-11-20T08:48:10;6.80;;;5.43;;
12910;SDS011;6523;49.758;6.120;2022-11-20T08:50:35;6.93;;;4.23;;
12910;SDS011;6523;49.758;6.120;2022-11-20T08:53:04;7.83;;;4.90;;
12910;SDS011;6523;49.758;6.120;2022-11-20T08:55:30;5.33;;;4.27;;
12910;SDS011;6523;49.758;6.120;2022-11-20T08:57:56;6.63;;;5.10;;
12910;SDS011;6523;49.758;6.120;2022-11-20T09:00:23;5.30;;;4.27;;
12910;SDS011;6523;49.758;6.120;2022-11-20T09:02:48;6.93;;;4.43;;
12910;SDS011;6523;49.758;6.120;2022-11-20T09:05:14;7.00;;;3.93;;
12910;SDS011;6523;49.758;6.120;2022-11-20T09:07:39;7.00;;;4.27;;
12910;SDS011;6523;49.758;6.120;2022-11-20T09:10:06;5.93;;;4.30;;
12910;SDS011;6523;49.758;6.120;2022-11-20T09:12:32;5.83;;;4.33;;
12910;SDS011;6523;49.758;6.120;2022-11-20T09:14:58;7.13;;;4.57;;
12910;SDS011;6523;49.758;6.120;2022-11-20T09:17:23;6.17;;;4.40;;
12910;SDS011;6523;49.758;6.120;2022-11-20T09:19:49;5.83;;;4.03;;
12910;SDS011;6523;49.758;6.120;2022-11-20T09:22:15;5.33;;;4.77;;
12910;SDS011;6523;49.758;6.120;2022-11-20T09:24:40;5.97;;;3.70;;
12910;SDS011;6523;49.758;6.120;2022-11-20T09:27:07;6.23;;;3.90;;
12910;SDS011;6523;49.758;6.120;2022-11-20T09:29:33;5.10;;;4.00;;
12910;SDS011;6523;49.758;6.120;2022-11-20T09:31:59;6.27;;;4.47;;
12910;SDS011;6523;49.758;6.120;2022-11-20T09:34:24;5.43;;;3.60;;
12910;SDS011;6523;49.758;6.120;2022-11-20T09:36:50;6.17;;;3.83;;
12910;SDS011;6523;49.758;6.120;2022-11-20T09:39:15;5.93;;;3.30;;
12910;SDS011;6523;49.758;6.120;2022-11-20T09:47:16;9.53;;;6.50;;
12910;SDS011;6523;49.758;6.120;2022-11-20T09:50:16;7.03;;;5.27;;
12910;SDS011;6523;49.758;6.120;2022-11-20T09:55:17;25.50;;;16.60;;
12910;SDS011;6523;49.758;6.120;2022-11-20T09:57:44;7.97;;;4.20;;
12910;SDS011;6523;49.758;6.120;2022-11-20T10:00:13;4.60;;;3.90;;
12910;SDS011;6523;49.758;6.120;2022-11-20T10:02:42;5.27;;;2.87;;
12910;SDS011;6523;49.758;6.120;2022-11-20T10:24:57;6.90;;;3.30;;
12910;SDS011;6523;49.758;6.120;2022-11-20T10:30:25;6.83;;;3.57;;
12910;SDS011;6523;49.758;6.120;2022-11-20T10:32:54;4.27;;;3.23;;
12910;SDS011;6523;49.758;6.120;2022-11-20T10:35:33;5.13;;;3.57;;
12910;SDS011;6523;49.758;6.120;2022-11-20T10:38:05;7.33;;;3.97;;
12910;SDS011;6523;49.758;6.120;2022-11-20T10:40:46;6.53;;;3.77;;
12910;SDS011;6523;49.758;6.120;2022-11-20T10:43:49;3.83;;;3.40;;
12910;SDS011;6523;49.758;6.120;2022-11-20T10:46:15;5.70;;;3.70;;
12910;SDS011;6523;49.758;6.120;2022-11-20T10:48:45;4.67;;;2.87;;
12910;SDS011;6523;49.758;6.120;2022-11-20T10:51:13;5.83;;;3.10;;
12910;SDS011;6523;49.758;6.120;2022-11-20T10:56:51;8.23;;;3.47;;
12910;SDS011;6523;49.758;6.120;2022-11-20T11:02:20;5.13;;;3.40;;
12910;SDS011;6523;49.758;6.120;2022-11-20T11:04:47;3.23;;;2.60;;
12910;SDS011;6523;49.758;6.120;2022-11-20T11:09:56;4.40;;;2.60;;
12910;SDS011;6523;49.758;6.120;2022-11-20T11:12:27;4.80;;;2.60;;
12910;SDS011;6523;49.758;6.120;2022-11-20T11:14:57;4.23;;;2.60;;
12910;SDS011;6523;49.758;6.120;2022-11-20T11:17:27;6.63;;;2.80;;
12910;SDS011;6523;49.758;6.120;2022-11-20T11:22:42;5.07;;;2.63;;
12910;SDS011;6523;49.758;6.120;2022-11-20T11:25:20;4.30;;;3.13;;
12910;SDS011;6523;49.758;6.120;2022-11-20T11:27:57;4.83;;;2.40;;
12910;SDS011;6523;49.758;6.120;2022-11-20T11:30:25;5.07;;;2.57;;
12910;SDS011;6523;49.758;6.120;2022-11-20T11:33:03;5.30;;;2.33;;
12910;SDS011;6523;49.758;6.120;2022-11-20T11:35:31;8.30;;;2.70;;
12910;SDS011;6523;49.758;6.120;2022-11-20T11:38:04;4.87;;;2.13;;
12910;SDS011;6523;49.758;6.120;2022-11-20T11:40:32;3.63;;;1.80;;
12910;SDS011;6523;49.758;6.120;2022-11-20T11:43:01;5.90;;;2.50;;
12910;SDS011;6523;49.758;6.120;2022-11-20T11:45:30;4.80;;;2.93;;
12910;SDS011;6523;49.758;6.120;2022-11-20T11:48:00;2.77;;;2.20;;
12910;SDS011;6523;49.758;6.120;2022-11-20T11:50:28;3.50;;;2.10;;
12910;SDS011;6523;49.758;6.120;2022-11-20T11:53:13;2.93;;;2.20;;
12910;SDS011;6523;49.758;6.120;2022-11-20T12:04:09;3.77;;;2.20;;
12910;SDS011;6523;49.758;6.120;2022-11-20T12:06:45;2.97;;;1.90;;
12910;SDS011;6523;49.758;6.120;2022-11-20T12:09:37;4.27;;;2.53;;
12910;SDS011;6523;49.758;6.120;2022-11-20T12:12:15;3.73;;;1.87;;
12910;SDS011;6523;49.758;6.120;2022-11-20T12:14:47;3.50;;;2.37;;
12910;SDS011;6523;49.758;6.120;2022-11-20T12:17:15;3.97;;;2.03;;
12910;SDS011;6523;49.758;6.120;2022-11-20T12:19:42;3.90;;;2.13;;
12910;SDS011;6523;49.758;6.120;2022-11-20T12:25:14;5.43;;;2.40;;
12910;SDS011;6523;49.758;6.120;2022-11-20T12:30:36;4.97;;;1.70;;
12910;SDS011;6523;49.758;6.120;2022-11-20T12:33:19;4.27;;;1.70;;
12910;SDS011;6523;49.758;6.120;2022-11-20T12:47:33;2.67;;;1.93;;
12910;SDS011;6523;49.758;6.120;2022-11-20T12:53:33;4.10;;;1.80;;
12910;SDS011;6523;49.758;6.120;2022-11-20T13:01:48;6.80;;;3.43;;
12910;SDS011;6523;49.758;6.120;2022-11-20T13:06:52;4.03;;;1.43;;
12910;SDS011;6523;49.758;6.120;2022-11-20T13:09:20;1.93;;;1.43;;
12910;SDS011;6523;49.758;6.120;2022-11-20T13:11:50;6.30;;;2.07;;
12910;SDS011;6523;49.758;6.120;2022-11-20T13:17:25;3.47;;;1.50;;
12910;SDS011;6523;49.758;6.120;2022-11-20T13:20:01;4.40;;;1.73;;
12910;SDS011;6523;49.758;6.120;2022-11-20T13:22:43;3.33;;;2.10;;
12910;SDS011;6523;49.758;6.120;2022-11-20T13:25:29;3.87;;;1.67;;
12910;SDS011;6523;49.758;6.120;2022-11-20T13:30:34;2.70;;;1.70;;
12910;SDS011;6523;49.758;6.120;2022-11-20T13:35:36;2.90;;;1.90;;
12910;SDS011;6523;49.758;6.120;2022-11-20T13:40:35;2.57;;;1.63;;
12910;SDS011;6523;49.758;6.120;2022-11-20T13:43:08;4.60;;;2.00;;
12910;SDS011;6523;49.758;6.120;2022-11-20T13:46:01;5.07;;;2.10;;
12910;SDS011;6523;49.758;6.120;2022-11-20T13:48:33;2.63;;;1.80;;
12910;SDS011;6523;49.758;6.120;2022-11-20T13:54:13;2.73;;;1.90;;
12910;SDS011;6523;49.758;6.120;2022-11-20T13:59:57;3.00;;;1.60;;
12910;SDS011;6523;49.758;6.120;2022-11-20T14:02:29;5.07;;;2.10;;
12910;SDS011;6523;49.758;6.120;2022-11-20T14:04:57;4.03;;;1.97;;
12910;SDS011;6523;49.758;6.120;2022-11-20T14:07:25;6.80;;;1.70;;
12910;SDS011;6523;49.758;6.120;2022-11-20T14:09:59;3.03;;;1.97;;
12910;SDS011;6523;49.758;6.120;2022-11-20T14:12:29;3.53;;;1.90;;
12910;SDS011;6523;49.758;6.120;2022-11-20T14:14:57;3.03;;;1.80;;
12910;SDS011;6523;49.758;6.120;2022-11-20T14:17:29;3.83;;;1.70;;
12910;SDS011;6523;49.758;6.120;2022-11-20T14:20:03;3.07;;;1.57;;
12910;SDS011;6523;49.758;6.120;2022-11-20T14:22:31;4.30;;;1.70;;
12910;SDS011;6523;49.758;6.120;2022-11-20T14:27:38;1.90;;;1.70;;
12910;SDS011;6523;49.758;6.120;2022-11-20T14:30:06;2.73;;;1.50;;
12910;SDS011;6523;49.758;6.120;2022-11-20T14:32:42;4.60;;;1.80;;
12910;SDS011;6523;49.758;6.120;2022-11-20T14:35:09;2.13;;;1.83;;
12910;SDS011;6523;49.758;6.120;2022-11-20T14:37:49;4.50;;;1.47;;
12910;SDS011;6523;49.758;6.120;2022-11-20T14:42:54;3.73;;;1.90;;
12910;SDS011;6523;49.758;6.120;2022-11-20T14:45:20;2.33;;;1.20;;
12910;SDS011;6523;49.758;6.120;2022-11-20T14:47:46;4.73;;;2.03;;
12910;SDS011;6523;49.758;6.120;2022-11-20T14:50:14;3.37;;;2.10;;
12910;SDS011;6523;49.758;6.120;2022-11-20T14:52:50;4.10;;;1.93;;
12910;SDS011;6523;49.758;6.120;2022-11-20T14:58:06;3.23;;;1.77;;
12910;SDS011;6523;49.758;6.120;2022-11-20T15:03:34;1.37;;;1.27;;
12910;SDS011;6523;49.758;6.120;2022-11-20T15:06:04;3.67;;;1.90;;
12910;SDS011;6523;49.758;6.120;2022-11-20T15:08:30;2.73;;;1.90;;
12910;SDS011;6523;49.758;6.120;2022-11-20T15:10:56;4.73;;;1.97;;
12910;SDS011;6523;49.758;6.120;2022-11-20T15:15:56;4.37;;;1.93;;
12910;SDS011;6523;49.758;6.120;2022-11-20T15:18:26;3.60;;;1.80;;
12910;SDS011;6523;49.758;6.120;2022-11-20T15:21:03;2.70;;;1.70;;
12910;SDS011;6523;49.758;6.120;2022-11-20T15:23:34;2.93;;;2.20;;
12910;SDS011;6523;49.758;6.120;2022-11-20T15:25:59;2.83;;;1.97;;
12910;SDS011;6523;49.758;6.120;2022-11-20T15:30:58;1.73;;;1.37;;
12910;SDS011;6523;49.758;6.120;2022-11-20T15:33:25;3.03;;;1.67;;
12910;SDS011;6523;49.758;6.120;2022-11-20T15:35:50;1.70;;;1.60;;
12910;SDS011;6523;49.758;6.120;2022-11-20T15:38:16;1.33;;;1.20;;
12910;SDS011;6523;49.758;6.120;2022-11-20T15:40:42;2.23;;;1.20;;
12910;SDS011;6523;49.758;6.120;2022-11-20T15:43:08;1.80;;;1.30;;
12910;SDS011;6523;49.758;6.120;2022-11-20T15:45:36;1.40;;;1.13;;
12910;SDS011;6523;49.758;6.120;2022-11-20T15:48:08;4.03;;;1.20;;
12910;SDS011;6523;49.758;6.120;2022-11-20T15:50:59;3.00;;;1.33;;
12910;SDS011;6523;49.758;6.120;2022-11-20T15:53:26;2.27;;;1.40;;
12910;SDS011;6523;49.758;6.120;2022-11-20T15:55:52;1.40;;;1.20;;
12910;SDS011;6523;49.758;6.120;2022-11-20T15:58:18;1.87;;;1.17;;
12910;SDS011;6523;49.758;6.120;2022-11-20T16:00:43;2.63;;;1.40;;
12910;SDS011;6523;49.758;6.120;2022-11-20T16:03:13;1.40;;;1.30;;
12910;SDS011;6523;49.758;6.120;2022-11-20T16:05:40;1.33;;;1.20;;
12910;SDS011;6523;49.758;6.120;2022-11-20T16:08:05;3.77;;;1.57;;
12910;SDS011;6523;49.758;6.120;2022-11-20T16:10:31;2.60;;;1.30;;
12910;SDS011;6523;49.758;6.120;2022-11-20T16:12:57;2.20;;;1.43;;
12910;SDS011;6523;49.758;6.120;2022-11-20T16:15:41;3.50;;;1.77;;
12910;SDS011;6523;49.758;6.120;2022-11-20T16:18:10;1.70;;;1.43;;
12910;SDS011;6523;49.758;6.120;2022-11-20T16:20:37;2.37;;;1.80;;
12910;SDS011;6523;49.758;6.120;2022-11-20T16:23:03;1.53;;;1.43;;
12910;SDS011;6523;49.758;6.120;2022-11-20T16:25:30;3.20;;;1.20;;
12910;SDS011;6523;49.758;6.120;2022-11-20T16:27:55;3.17;;;2.77;;
12910;SDS011;6523;49.758;6.120;2022-11-20T16:30:21;3.13;;;1.57;;
12910;SDS011;6523;49.758;6.120;2022-11-20T16:32:47;2.80;;;1.53;;
12910;SDS011;6523;49.758;6.120;2022-11-20T16:35:13;2.10;;;1.33;;
12910;SDS011;6523;49.758;6.120;2022-11-20T16:37:38;2.87;;;1.47;;
12910;SDS011;6523;49.758;6.120;2022-11-20T16:40:04;2.67;;;1.17;;
12910;SDS011;6523;49.758;6.120;2022-11-20T16:42:34;2.43;;;1.37;;
12910;SDS011;6523;49.758;6.120;2022-11-20T16:44:59;2.33;;;1.60;;
12910;SDS011;6523;49.758;6.120;2022-11-20T16:47:25;2.17;;;1.27;;
12910;SDS011;6523;49.758;6.120;2022-11-20T16:49:51;3.63;;;1.83;;
12910;SDS011;6523;49.758;6.120;2022-11-20T16:52:16;3.17;;;1.10;;
12910;SDS011;6523;49.758;6.120;2022-11-20T16:54:42;1.50;;;1.40;;
12910;SDS011;6523;49.758;6.120;2022-11-20T16:57:07;1.50;;;1.40;;
12910;SDS011;6523;49.758;6.120;2022-11-20T16:59:33;1.23;;;1.10;;
12910;SDS011;6523;49.758;6.120;2022-11-20T17:01:58;1.03;;;0.93;;
12910;SDS011;6523;49.758;6.120;2022-11-20T17:04:24;1.27;;;1.10;;
12910;SDS011;6523;49.758;6.120;2022-11-20T17:06:49;0.80;;;0.80;;
12910;SDS011;6523;49.758;6.120;2022-11-20T17:09:15;1.03;;;0.93;;
12910;SDS011;6523;49.758;6.120;2022-11-20T17:11:41;0.83;;;0.73;;
12910;SDS011;6523;49.758;6.120;2022-11-20T17:14:08;1.53;;;0.90;;
12910;SDS011;6523;49.758;6.120;2022-11-20T17:16:37;2.60;;;1.10;;
12910;SDS011;6523;49.758;6.120;2022-11-20T17:19:03;1.00;;;0.90;;